sensor_id;sensor_type;location;lat;lon;timestamp;P1;durP1;ratioP1;P2;durP2;ratioP2
41101;SDS011;26845;50.190;19.178;2022-09-24T00:01:25;85.17;;;49.88;;
41101;SDS011;26845;50.190;19.178;2022-09-24T00:03:57;78.20;;;44.35;;
41101;SDS011;26845;50.190;19.178;2022-09-24T00:06:28;80.67;;;43.85;;
41101;SDS011;26845;50.190;19.178;2022-09-24T00:08:58;73.75;;;42.35;;
41101;SDS011;26845;50.190;19.178;2022-09-24T00:11:26;76.12;;;47.73;;
41101;SDS011;26845;50.190;19.178;2022-09-24T00:13:54;73.37;;;44.65;;
41101;SDS011;26845;50.190;19.178;2022-09-24T00:16:24;68.57;;;40.75;;
41101;SDS011;26845;50.190;19.178;2022-09-24T00:18:57;67.45;;;40.43;;
41101;SDS011;26845;50.190;19.178;2022-09-24T00:21:26;73.67;;;43.42;;
41101;SDS011;26845;50.190;19.178;2022-09-24T00:23:56;71.07;;;42.88;;
41101;SDS011;26845;50.190;19.178;2022-09-24T00:26:27;75.10;;;45.10;;
41101;SDS011;26845;50.190;19.178;2022-09-24T00:29:14;65.85;;;40.90;;
41101;SDS011;26845;50.190;19.178;2022-09-24T00:31:48;66.15;;;40.45;;
41101;SDS011;26845;50.190;19.178;2022-09-24T00:34:17;66.50;;;39.63;;
41101;SDS011;26845;50.190;19.178;2022-09-24T00:36:44;58.48;;;38.35;;
41101;SDS011;26845;50.190;19.178;2022-09-24T00:39:11;68.17;;;40.85;;
41101;SDS011;26845;50.190;19.178;2022-09-24T00:41:39;61.65;;;37.03;;
41101;SDS011;26845;50.190;19.178;2022-09-24T00:47:30;49.08;;;30.82;;
41101;SDS011;26845;50.190;19.178;2022-09-24T00:50:17;46.75;;;28.25;;
41101;SDS011;26845;50.190;19.178;2022-09-24T00:52:52;44.15;;;27.75;;
41101;SDS011;26845;50.190;19.178;2022-09-24T00:55:30;48.70;;;30.10;;
41101;SDS011;26845;50.190;19.178;2022-09-24T00:58:01;48.05;;;28.87;;
41101;SDS011;26845;50.190;19.178;2022-09-24T01:00:31;47.98;;;29.12;;
41101;SDS011;26845;50.190;19.178;2022-09-24T01:03:00;46.05;;;28.00;;
41101;SDS011;26845;50.190;19.178;2022-09-24T01:05:36;47.30;;;29.18;;
41101;SDS011;26845;50.190;19.178;2022-09-24T01:08:05;47.80;;;28.62;;
41101;SDS011;26845;50.190;19.178;2022-09-24T01:10:38;48.63;;;29.55;;
41101;SDS011;26845;50.190;19.178;2022-09-24T01:13:27;45.05;;;28.47;;
41101;SDS011;26845;50.190;19.178;2022-09-24T01:19:06;45.48;;;28.65;;
41101;SDS011;26845;50.190;19.178;2022-09-24T01:21:51;52.20;;;31.35;;
41101;SDS011;26845;50.190;19.178;2022-09-24T01:27:35;47.38;;;29.05;;
41101;SDS011;26845;50.190;19.178;2022-09-24T01:30:21;42.05;;;28.05;;
41101;SDS011;26845;50.190;19.178;2022-09-24T01:32:52;48.83;;;29.60;;
41101;SDS011;26845;50.190;19.178;2022-09-24T01:35:30;46.85;;;27.35;;
41101;SDS011;26845;50.190;19.178;2022-09-24T01:38:10;49.75;;;30.45;;
41101;SDS011;26845;50.190;19.178;2022-09-24T01:40:43;46.28;;;29.23;;
41101;SDS011;26845;50.190;19.178;2022-09-24T01:43:11;49.70;;;29.72;;
41101;SDS011;26845;50.190;19.178;2022-09-24T01:45:42;49.88;;;28.57;;
41101;SDS011;26845;50.190;19.178;2022-09-24T01:48:09;43.58;;;27.55;;
41101;SDS011;26845;50.190;19.178;2022-09-24T01:50:43;50.25;;;29.45;;
41101;SDS011;26845;50.190;19.178;2022-09-24T01:53:19;46.98;;;28.60;;
41101;SDS011;26845;50.190;19.178;2022-09-24T01:56:11;50.40;;;29.07;;
41101;SDS011;26845;50.190;19.178;2022-09-24T01:58:45;49.00;;;29.27;;
41101;SDS011;26845;50.190;19.178;2022-09-24T02:01:21;46.68;;;29.18;;
41101;SDS011;26845;50.190;19.178;2022-09-24T02:03:55;42.48;;;28.87;;
41101;SDS011;26845;50.190;19.178;2022-09-24T02:06:34;51.23;;;31.55;;
41101;SDS011;26845;50.190;19.178;2022-09-24T02:09:33;57.60;;;33.30;;
41101;SDS011;26845;50.190;19.178;2022-09-24T02:12:24;51.57;;;31.20;;
41101;SDS011;26845;50.190;19.178;2022-09-24T02:14:57;49.27;;;30.57;;
41101;SDS011;26845;50.190;19.178;2022-09-24T02:17:38;54.00;;;31.95;;
41101;SDS011;26845;50.190;19.178;2022-09-24T02:20:10;44.25;;;29.65;;
41101;SDS011;26845;50.190;19.178;2022-09-24T02:22:40;52.83;;;30.88;;
41101;SDS011;26845;50.190;19.178;2022-09-24T02:25:10;42.20;;;29.03;;
41101;SDS011;26845;50.190;19.178;2022-09-24T02:27:40;48.95;;;29.27;;
41101;SDS011;26845;50.190;19.178;2022-09-24T02:30:07;48.90;;;29.63;;
41101;SDS011;26845;50.190;19.178;2022-09-24T02:32:36;47.17;;;28.05;;
41101;SDS011;26845;50.190;19.178;2022-09-24T02:35:07;43.13;;;28.35;;
41101;SDS011;26845;50.190;19.178;2022-09-24T02:37:37;45.17;;;28.40;;
41101;SDS011;26845;50.190;19.178;2022-09-24T02:40:07;40.33;;;26.33;;
41101;SDS011;26845;50.190;19.178;2022-09-24T02:42:37;44.55;;;27.95;;
41101;SDS011;26845;50.190;19.178;2022-09-24T02:45:06;43.00;;;26.37;;
41101;SDS011;26845;50.190;19.178;2022-09-24T02:47:34;39.45;;;26.00;;
41101;SDS011;26845;50.190;19.178;2022-09-24T02:50:00;41.90;;;26.12;;
41101;SDS011;26845;50.190;19.178;2022-09-24T02:52:27;43.90;;;27.02;;
41101;SDS011;26845;50.190;19.178;2022-09-24T02:54:54;45.12;;;26.68;;
41101;SDS011;26845;50.190;19.178;2022-09-24T02:57:21;42.00;;;26.82;;
41101;SDS011;26845;50.190;19.178;2022-09-24T02:59:47;40.78;;;26.42;;
41101;SDS011;26845;50.190;19.178;2022-09-24T03:02:14;38.35;;;26.05;;
41101;SDS011;26845;50.190;19.178;2022-09-24T03:04:40;37.30;;;25.27;;
41101;SDS011;26845;50.190;19.178;2022-09-24T03:07:07;40.58;;;24.85;;
41101;SDS011;26845;50.190;19.178;2022-09-24T03:09:35;37.88;;;24.82;;
41101;SDS011;26845;50.190;19.178;2022-09-24T03:12:01;38.73;;;24.72;;
41101;SDS011;26845;50.190;19.178;2022-09-24T03:14:30;43.30;;;25.57;;
41101;SDS011;26845;50.190;19.178;2022-09-24T03:16:56;49.08;;;29.23;;
41101;SDS011;26845;50.190;19.178;2022-09-24T03:19:23;43.50;;;27.95;;
41101;SDS011;26845;50.190;19.178;2022-09-24T03:21:50;43.38;;;27.15;;
41101;SDS011;26845;50.190;19.178;2022-09-24T03:24:16;43.15;;;27.17;;
41101;SDS011;26845;50.190;19.178;2022-09-24T03:26:43;39.50;;;25.52;;
41101;SDS011;26845;50.190;19.178;2022-09-24T03:29:10;42.62;;;28.32;;
41101;SDS011;26845;50.190;19.178;2022-09-24T03:31:37;43.87;;;26.60;;
41101;SDS011;26845;50.190;19.178;2022-09-24T03:34:03;44.70;;;28.40;;
41101;SDS011;26845;50.190;19.178;2022-09-24T03:36:30;45.30;;;29.10;;
41101;SDS011;26845;50.190;19.178;2022-09-24T03:38:56;42.75;;;26.80;;
41101;SDS011;26845;50.190;19.178;2022-09-24T03:41:24;43.83;;;28.27;;
41101;SDS011;26845;50.190;19.178;2022-09-24T03:43:52;42.78;;;28.30;;
41101;SDS011;26845;50.190;19.178;2022-09-24T03:46:20;41.90;;;26.90;;
41101;SDS011;26845;50.190;19.178;2022-09-24T03:48:49;40.43;;;26.33;;
41101;SDS011;26845;50.190;19.178;2022-09-24T03:51:16;48.55;;;25.12;;
41101;SDS011;26845;50.190;19.178;2022-09-24T03:53:45;40.65;;;26.65;;
41101;SDS011;26845;50.190;19.178;2022-09-24T03:56:13;51.45;;;31.27;;
41101;SDS011;26845;50.190;19.178;2022-09-24T03:58:41;59.15;;;36.28;;
41101;SDS011;26845;50.190;19.178;2022-09-24T04:01:10;61.80;;;37.05;;
41101;SDS011;26845;50.190;19.178;2022-09-24T04:03:38;57.27;;;36.20;;
41101;SDS011;26845;50.190;19.178;2022-09-24T04:06:05;57.25;;;35.58;;
41101;SDS011;26845;50.190;19.178;2022-09-24T04:08:33;57.50;;;33.95;;
41101;SDS011;26845;50.190;19.178;2022-09-24T04:10:59;54.77;;;31.87;;
41101;SDS011;26845;50.190;19.178;2022-09-24T04:13:26;47.85;;;31.33;;
41101;SDS011;26845;50.190;19.178;2022-09-24T04:15:52;46.15;;;27.73;;
41101;SDS011;26845;50.190;19.178;2022-09-24T04:18:20;40.83;;;25.97;;
41101;SDS011;26845;50.190;19.178;2022-09-24T04:20:47;41.95;;;26.42;;
41101;SDS011;26845;50.190;19.178;2022-09-24T04:23:14;35.30;;;23.92;;
41101;SDS011;26845;50.190;19.178;2022-09-24T04:25:40;40.98;;;25.95;;
41101;SDS011;26845;50.190;19.178;2022-09-24T04:28:08;38.45;;;24.20;;
41101;SDS011;26845;50.190;19.178;2022-09-24T04:30:36;37.73;;;24.98;;
41101;SDS011;26845;50.190;19.178;2022-09-24T04:33:04;36.13;;;23.67;;
41101;SDS011;26845;50.190;19.178;2022-09-24T04:35:32;35.48;;;23.02;;
41101;SDS011;26845;50.190;19.178;2022-09-24T04:38:03;33.92;;;22.40;;
41101;SDS011;26845;50.190;19.178;2022-09-24T04:40:30;35.00;;;21.85;;
41101;SDS011;26845;50.190;19.178;2022-09-24T04:42:58;37.60;;;24.30;;
41101;SDS011;26845;50.190;19.178;2022-09-24T04:45:24;34.50;;;22.40;;
41101;SDS011;26845;50.190;19.178;2022-09-24T04:47:52;36.70;;;23.20;;
41101;SDS011;26845;50.190;19.178;2022-09-24T04:50:21;37.38;;;23.40;;
41101;SDS011;26845;50.190;19.178;2022-09-24T04:52:54;41.30;;;22.65;;
41101;SDS011;26845;50.190;19.178;2022-09-24T04:55:22;41.02;;;24.35;;
41101;SDS011;26845;50.190;19.178;2022-09-24T04:57:53;35.98;;;22.50;;
41101;SDS011;26845;50.190;19.178;2022-09-24T05:00:22;37.95;;;22.85;;
41101;SDS011;26845;50.190;19.178;2022-09-24T05:02:57;35.17;;;22.87;;
41101;SDS011;26845;50.190;19.178;2022-09-24T05:05:24;36.73;;;23.38;;
41101;SDS011;26845;50.190;19.178;2022-09-24T05:07:53;37.50;;;23.35;;
41101;SDS011;26845;50.190;19.178;2022-09-24T05:10:22;35.78;;;22.55;;
41101;SDS011;26845;50.190;19.178;2022-09-24T05:12:51;38.73;;;24.67;;
41101;SDS011;26845;50.190;19.178;2022-09-24T05:15:19;38.45;;;24.85;;
41101;SDS011;26845;50.190;19.178;2022-09-24T05:17:46;46.88;;;27.35;;
41101;SDS011;26845;50.190;19.178;2022-09-24T05:20:13;44.75;;;27.35;;
41101;SDS011;26845;50.190;19.178;2022-09-24T05:22:42;47.58;;;27.87;;
41101;SDS011;26845;50.190;19.178;2022-09-24T05:25:11;43.58;;;26.25;;
41101;SDS011;26845;50.190;19.178;2022-09-24T05:27:45;45.73;;;27.98;;
41101;SDS011;26845;50.190;19.178;2022-09-24T05:30:14;105.07;;;64.27;;
41101;SDS011;26845;50.190;19.178;2022-09-24T05:32:42;85.50;;;50.38;;
41101;SDS011;26845;50.190;19.178;2022-09-24T05:35:09;60.78;;;38.45;;
41101;SDS011;26845;50.190;19.178;2022-09-24T05:37:36;68.55;;;41.28;;
41101;SDS011;26845;50.190;19.178;2022-09-24T05:40:04;67.32;;;42.03;;
41101;SDS011;26845;50.190;19.178;2022-09-24T05:42:50;64.40;;;40.58;;
41101;SDS011;26845;50.190;19.178;2022-09-24T05:45:19;69.07;;;39.97;;
41101;SDS011;26845;50.190;19.178;2022-09-24T05:47:46;66.25;;;38.20;;
41101;SDS011;26845;50.190;19.178;2022-09-24T05:50:12;60.88;;;35.98;;
41101;SDS011;26845;50.190;19.178;2022-09-24T05:52:39;60.52;;;35.15;;
41101;SDS011;26845;50.190;19.178;2022-09-24T05:55:08;59.67;;;35.92;;
41101;SDS011;26845;50.190;19.178;2022-09-24T05:57:35;59.88;;;36.15;;
41101;SDS011;26845;50.190;19.178;2022-09-24T06:00:03;56.13;;;34.05;;
41101;SDS011;26845;50.190;19.178;2022-09-24T06:02:32;50.20;;;31.17;;
41101;SDS011;26845;50.190;19.178;2022-09-24T06:04:58;42.78;;;27.17;;
41101;SDS011;26845;50.190;19.178;2022-09-24T06:07:25;39.00;;;24.85;;
41101;SDS011;26845;50.190;19.178;2022-09-24T06:09:52;39.48;;;25.35;;
41101;SDS011;26845;50.190;19.178;2022-09-24T06:12:18;36.98;;;24.95;;
41101;SDS011;26845;50.190;19.178;2022-09-24T06:14:47;44.50;;;28.55;;
41101;SDS011;26845;50.190;19.178;2022-09-24T06:17:13;44.33;;;28.40;;
41101;SDS011;26845;50.190;19.178;2022-09-24T06:19:40;40.38;;;26.25;;
41101;SDS011;26845;50.190;19.178;2022-09-24T06:22:07;40.43;;;25.55;;
41101;SDS011;26845;50.190;19.178;2022-09-24T06:24:33;34.43;;;24.05;;
41101;SDS011;26845;50.190;19.178;2022-09-24T06:27:02;35.00;;;23.95;;
41101;SDS011;26845;50.190;19.178;2022-09-24T06:29:29;36.70;;;25.02;;
41101;SDS011;26845;50.190;19.178;2022-09-24T06:31:56;44.53;;;25.80;;
41101;SDS011;26845;50.190;19.178;2022-09-24T06:34:22;36.55;;;24.12;;
41101;SDS011;26845;50.190;19.178;2022-09-24T06:36:52;31.12;;;22.50;;
41101;SDS011;26845;50.190;19.178;2022-09-24T06:39:22;35.70;;;24.00;;
41101;SDS011;26845;50.190;19.178;2022-09-24T06:41:49;38.08;;;24.63;;
41101;SDS011;26845;50.190;19.178;2022-09-24T06:44:16;31.05;;;22.07;;
41101;SDS011;26845;50.190;19.178;2022-09-24T06:46:44;35.50;;;21.82;;
41101;SDS011;26845;50.190;19.178;2022-09-24T06:49:11;36.33;;;23.20;;
41101;SDS011;26845;50.190;19.178;2022-09-24T06:51:38;32.05;;;21.52;;
41101;SDS011;26845;50.190;19.178;2022-09-24T06:54:05;37.60;;;27.42;;
41101;SDS011;26845;50.190;19.178;2022-09-24T06:56:31;44.25;;;34.80;;
41101;SDS011;26845;50.190;19.178;2022-09-24T06:58:58;51.37;;;39.33;;
41101;SDS011;26845;50.190;19.178;2022-09-24T07:01:25;36.70;;;25.85;;
41101;SDS011;26845;50.190;19.178;2022-09-24T07:03:51;32.00;;;22.87;;
41101;SDS011;26845;50.190;19.178;2022-09-24T07:06:18;28.87;;;19.45;;
41101;SDS011;26845;50.190;19.178;2022-09-24T07:08:49;28.98;;;21.12;;
41101;SDS011;26845;50.190;19.178;2022-09-24T07:11:16;30.75;;;21.52;;
41101;SDS011;26845;50.190;19.178;2022-09-24T07:13:43;24.92;;;19.25;;
41101;SDS011;26845;50.190;19.178;2022-09-24T07:16:09;28.83;;;19.05;;
41101;SDS011;26845;50.190;19.178;2022-09-24T07:18:39;25.83;;;18.00;;
41101;SDS011;26845;50.190;19.178;2022-09-24T07:21:05;33.88;;;20.02;;
41101;SDS011;26845;50.190;19.178;2022-09-24T07:23:32;22.32;;;15.80;;
41101;SDS011;26845;50.190;19.178;2022-09-24T07:25:58;21.93;;;15.75;;
41101;SDS011;26845;50.190;19.178;2022-09-24T07:28:25;17.40;;;11.93;;
41101;SDS011;26845;50.190;19.178;2022-09-24T07:30:55;17.45;;;11.60;;
41101;SDS011;26845;50.190;19.178;2022-09-24T07:33:24;15.98;;;11.80;;
41101;SDS011;26845;50.190;19.178;2022-09-24T07:35:51;15.23;;;10.30;;
41101;SDS011;26845;50.190;19.178;2022-09-24T07:38:18;13.53;;;10.05;;
41101;SDS011;26845;50.190;19.178;2022-09-24T07:40:45;17.55;;;10.18;;
41101;SDS011;26845;50.190;19.178;2022-09-24T07:43:11;14.83;;;10.23;;
41101;SDS011;26845;50.190;19.178;2022-09-24T07:45:40;13.90;;;9.43;;
41101;SDS011;26845;50.190;19.178;2022-09-24T07:48:08;14.18;;;9.55;;
41101;SDS011;26845;50.190;19.178;2022-09-24T07:50:38;14.60;;;9.53;;
41101;SDS011;26845;50.190;19.178;2022-09-24T07:53:09;12.90;;;9.28;;
41101;SDS011;26845;50.190;19.178;2022-09-24T07:55:37;18.50;;;9.73;;
41101;SDS011;26845;50.190;19.178;2022-09-24T07:58:07;12.68;;;9.20;;
41101;SDS011;26845;50.190;19.178;2022-09-24T08:06:45;13.53;;;10.30;;
41101;SDS011;26845;50.190;19.178;2022-09-24T08:09:11;19.48;;;10.78;;
41101;SDS011;26845;50.190;19.178;2022-09-24T08:11:41;16.23;;;10.18;;
41101;SDS011;26845;50.190;19.178;2022-09-24T08:14:09;15.43;;;9.73;;
41101;SDS011;26845;50.190;19.178;2022-09-24T08:16:35;15.20;;;10.40;;
41101;SDS011;26845;50.190;19.178;2022-09-24T08:19:04;16.20;;;9.38;;
41101;SDS011;26845;50.190;19.178;2022-09-24T08:21:31;14.63;;;9.08;;
41101;SDS011;26845;50.190;19.178;2022-09-24T08:23:59;14.15;;;9.75;;
41101;SDS011;26845;50.190;19.178;2022-09-24T08:26:26;15.98;;;9.53;;
41101;SDS011;26845;50.190;19.178;2022-09-24T08:28:52;11.85;;;8.80;;
41101;SDS011;26845;50.190;19.178;2022-09-24T08:31:19;14.33;;;9.50;;
41101;SDS011;26845;50.190;19.178;2022-09-24T08:33:46;13.95;;;9.25;;
41101;SDS011;26845;50.190;19.178;2022-09-24T08:36:14;13.53;;;8.98;;
41101;SDS011;26845;50.190;19.178;2022-09-24T08:38:41;12.50;;;8.85;;
41101;SDS011;26845;50.190;19.178;2022-09-24T08:44:04;17.37;;;9.85;;
41101;SDS011;26845;50.190;19.178;2022-09-24T08:46:37;14.83;;;8.20;;
41101;SDS011;26845;50.190;19.178;2022-09-24T08:49:34;13.53;;;9.25;;
41101;SDS011;26845;50.190;19.178;2022-09-24T08:52:24;15.03;;;9.28;;
41101;SDS011;26845;50.190;19.178;2022-09-24T08:55:06;12.93;;;8.68;;
41101;SDS011;26845;50.190;19.178;2022-09-24T08:57:57;14.63;;;8.83;;
41101;SDS011;26845;50.190;19.178;2022-09-24T09:03:48;15.40;;;8.85;;
41101;SDS011;26845;50.190;19.178;2022-09-24T09:09:47;14.38;;;8.65;;
41101;SDS011;26845;50.190;19.178;2022-09-24T09:12:27;13.50;;;8.65;;
41101;SDS011;26845;50.190;19.178;2022-09-24T09:15:15;13.62;;;9.03;;
41101;SDS011;26845;50.190;19.178;2022-09-24T09:20:29;13.62;;;8.73;;
41101;SDS011;26845;50.190;19.178;2022-09-24T09:23:02;13.30;;;8.33;;
41101;SDS011;26845;50.190;19.178;2022-09-24T09:25:32;11.40;;;8.63;;
41101;SDS011;26845;50.190;19.178;2022-09-24T09:28:03;12.68;;;8.15;;
41101;SDS011;26845;50.190;19.178;2022-09-24T09:30:38;11.05;;;8.00;;
41101;SDS011;26845;50.190;19.178;2022-09-24T09:33:24;12.55;;;8.00;;
41101;SDS011;26845;50.190;19.178;2022-09-24T09:36:04;11.88;;;8.18;;
41101;SDS011;26845;50.190;19.178;2022-09-24T09:38:37;9.75;;;7.15;;
41101;SDS011;26845;50.190;19.178;2022-09-24T09:44:10;11.78;;;8.68;;
41101;SDS011;26845;50.190;19.178;2022-09-24T09:46:54;14.63;;;7.97;;
41101;SDS011;26845;50.190;19.178;2022-09-24T09:49:30;12.00;;;7.83;;
41101;SDS011;26845;50.190;19.178;2022-09-24T09:52:09;13.53;;;8.13;;
41101;SDS011;26845;50.190;19.178;2022-09-24T09:54:39;10.53;;;7.95;;
41101;SDS011;26845;50.190;19.178;2022-09-24T09:57:07;15.13;;;8.73;;
41101;SDS011;26845;50.190;19.178;2022-09-24T09:59:38;12.55;;;7.62;;
41101;SDS011;26845;50.190;19.178;2022-09-24T10:02:09;9.85;;;7.22;;
41101;SDS011;26845;50.190;19.178;2022-09-24T10:04:41;8.78;;;6.25;;
41101;SDS011;26845;50.190;19.178;2022-09-24T10:07:15;8.05;;;5.90;;
41101;SDS011;26845;50.190;19.178;2022-09-24T10:09:44;8.65;;;6.75;;
41101;SDS011;26845;50.190;19.178;2022-09-24T10:17:32;10.70;;;7.35;;
41101;SDS011;26845;50.190;19.178;2022-09-24T10:20:14;9.68;;;6.45;;
41101;SDS011;26845;50.190;19.178;2022-09-24T10:23:01;12.58;;;7.03;;
41101;SDS011;26845;50.190;19.178;2022-09-24T10:25:33;9.00;;;6.80;;
41101;SDS011;26845;50.190;19.178;2022-09-24T10:28:06;7.97;;;5.85;;
41101;SDS011;26845;50.190;19.178;2022-09-24T10:31:00;9.23;;;5.80;;
41101;SDS011;26845;50.190;19.178;2022-09-24T10:33:39;8.25;;;5.50;;
41101;SDS011;26845;50.190;19.178;2022-09-24T10:38:34;6.12;;;4.53;;
41101;SDS011;26845;50.190;19.178;2022-09-24T10:41:01;5.08;;;4.00;;
41101;SDS011;26845;50.190;19.178;2022-09-24T10:43:52;6.58;;;3.92;;
41101;SDS011;26845;50.190;19.178;2022-09-24T11:06:53;6.22;;;4.72;;
41101;SDS011;26845;50.190;19.178;2022-09-24T11:13:12;4.87;;;4.10;;
41101;SDS011;26845;50.190;19.178;2022-09-24T11:24:40;3.95;;;2.83;;
41101;SDS011;26845;50.190;19.178;2022-09-24T11:32:54;3.58;;;3.27;;
41101;SDS011;26845;50.190;19.178;2022-09-24T11:52:49;2.72;;;1.70;;
41101;SDS011;26845;50.190;19.178;2022-09-24T11:55:21;1.95;;;1.80;;
41101;SDS011;26845;50.190;19.178;2022-09-24T12:00:50;2.10;;;1.90;;
41101;SDS011;26845;50.190;19.178;2022-09-24T12:03:46;2.62;;;2.00;;
41101;SDS011;26845;50.190;19.178;2022-09-24T12:06:04;2.62;;;2.35;;
41101;SDS011;26845;50.190;19.178;2022-09-24T12:11:31;2.10;;;1.82;;
41101;SDS011;26845;50.190;19.178;2022-09-24T12:14:08;3.15;;;1.52;;
41101;SDS011;26845;50.190;19.178;2022-09-24T12:16:46;2.37;;;1.82;;
41101;SDS011;26845;50.190;19.178;2022-09-24T12:19:23;2.40;;;1.77;;
41101;SDS011;26845;50.190;19.178;2022-09-24T12:22:13;3.58;;;2.15;;
41101;SDS011;26845;50.190;19.178;2022-09-24T12:24:44;2.55;;;1.85;;
41101;SDS011;26845;50.190;19.178;2022-09-24T12:27:25;3.30;;;2.12;;
41101;SDS011;26845;50.190;19.178;2022-09-24T12:33:13;3.65;;;2.00;;
41101;SDS011;26845;50.190;19.178;2022-09-24T12:38:42;2.10;;;1.90;;
41101;SDS011;26845;50.190;19.178;2022-09-24T12:46:50;4.05;;;2.20;;
41101;SDS011;26845;50.190;19.178;2022-09-24T12:52:00;4.22;;;2.00;;
41101;SDS011;26845;50.190;19.178;2022-09-24T12:54:38;4.87;;;2.60;;
41101;SDS011;26845;50.190;19.178;2022-09-24T12:57:20;3.65;;;2.15;;
41101;SDS011;26845;50.190;19.178;2022-09-24T12:59:58;5.22;;;2.27;;
41101;SDS011;26845;50.190;19.178;2022-09-24T13:02:28;4.85;;;2.20;;
41101;SDS011;26845;50.190;19.178;2022-09-24T13:07:59;2.83;;;1.80;;
41101;SDS011;26845;50.190;19.178;2022-09-24T13:10:38;2.52;;;1.92;;
41101;SDS011;26845;50.190;19.178;2022-09-24T13:13:19;2.40;;;1.95;;
41101;SDS011;26845;50.190;19.178;2022-09-24T13:18:36;2.10;;;1.82;;
41101;SDS011;26845;50.190;19.178;2022-09-24T13:21:03;3.45;;;2.35;;
41101;SDS011;26845;50.190;19.178;2022-09-24T13:26:10;5.42;;;2.22;;
41101;SDS011;26845;50.190;19.178;2022-09-24T13:29:05;3.05;;;2.27;;
41101;SDS011;26845;50.190;19.178;2022-09-24T13:31:39;3.08;;;2.20;;
41101;SDS011;26845;50.190;19.178;2022-09-24T13:34:21;2.20;;;1.92;;
41101;SDS011;26845;50.190;19.178;2022-09-24T13:37:01;3.30;;;2.20;;
41101;SDS011;26845;50.190;19.178;2022-09-24T13:39:41;4.10;;;2.35;;
41101;SDS011;26845;50.190;19.178;2022-09-24T13:42:24;2.58;;;2.00;;
41101;SDS011;26845;50.190;19.178;2022-09-24T13:45:19;3.08;;;2.30;;
41101;SDS011;26845;50.190;19.178;2022-09-24T13:50:32;5.25;;;2.22;;
41101;SDS011;26845;50.190;19.178;2022-09-24T13:55:47;3.42;;;2.25;;
41101;SDS011;26845;50.190;19.178;2022-09-24T14:01:01;3.40;;;2.05;;
41101;SDS011;26845;50.190;19.178;2022-09-24T14:03:37;2.47;;;2.22;;
41101;SDS011;26845;50.190;19.178;2022-09-24T14:06:12;2.62;;;2.42;;
41101;SDS011;26845;50.190;19.178;2022-09-24T14:08:45;2.52;;;2.12;;
41101;SDS011;26845;50.190;19.178;2022-09-24T14:11:18;4.40;;;2.50;;
41101;SDS011;26845;50.190;19.178;2022-09-24T14:13:48;2.58;;;2.12;;
41101;SDS011;26845;50.190;19.178;2022-09-24T14:16:17;7.40;;;2.35;;
41101;SDS011;26845;50.190;19.178;2022-09-24T14:18:59;3.20;;;2.58;;
41101;SDS011;26845;50.190;19.178;2022-09-24T14:21:33;2.47;;;2.25;;
41101;SDS011;26845;50.190;19.178;2022-09-24T14:29:33;3.58;;;2.58;;
41101;SDS011;26845;50.190;19.178;2022-09-24T14:32:05;3.22;;;2.58;;
41101;SDS011;26845;50.190;19.178;2022-09-24T14:34:36;2.87;;;2.60;;
41101;SDS011;26845;50.190;19.178;2022-09-24T14:37:22;4.28;;;3.15;;
41101;SDS011;26845;50.190;19.178;2022-09-24T14:40:06;3.00;;;2.72;;
41101;SDS011;26845;50.190;19.178;2022-09-24T14:42:41;5.75;;;2.80;;
41101;SDS011;26845;50.190;19.178;2022-09-24T14:45:16;3.50;;;2.70;;
41101;SDS011;26845;50.190;19.178;2022-09-24T14:47:45;3.15;;;2.83;;
41101;SDS011;26845;50.190;19.178;2022-09-24T14:55:59;5.45;;;2.65;;
41101;SDS011;26845;50.190;19.178;2022-09-24T15:01:03;3.65;;;2.70;;
41101;SDS011;26845;50.190;19.178;2022-09-24T15:03:49;6.33;;;2.62;;
41101;SDS011;26845;50.190;19.178;2022-09-24T15:06:26;2.37;;;2.17;;
41101;SDS011;26845;50.190;19.178;2022-09-24T15:12:04;12.70;;;2.75;;
41101;SDS011;26845;50.190;19.178;2022-09-24T15:14:54;12.80;;;3.80;;
41101;SDS011;26845;50.190;19.178;2022-09-24T15:17:30;3.70;;;2.60;;
41101;SDS011;26845;50.190;19.178;2022-09-24T15:20:01;3.30;;;2.50;;
41101;SDS011;26845;50.190;19.178;2022-09-24T15:22:30;6.10;;;2.90;;
41101;SDS011;26845;50.190;19.178;2022-09-24T15:24:57;3.05;;;2.85;;
41101;SDS011;26845;50.190;19.178;2022-09-24T15:27:25;5.20;;;2.65;;
41101;SDS011;26845;50.190;19.178;2022-09-24T15:29:55;3.70;;;2.87;;
41101;SDS011;26845;50.190;19.178;2022-09-24T15:32:27;6.72;;;2.35;;
41101;SDS011;26845;50.190;19.178;2022-09-24T15:34:57;3.35;;;3.05;;
41101;SDS011;26845;50.190;19.178;2022-09-24T15:37:24;2.75;;;2.30;;
41101;SDS011;26845;50.190;19.178;2022-09-24T15:40:04;7.20;;;3.10;;
41101;SDS011;26845;50.190;19.178;2022-09-24T15:42:48;5.62;;;2.60;;
41101;SDS011;26845;50.190;19.178;2022-09-24T15:45:20;6.08;;;3.87;;
41101;SDS011;26845;50.190;19.178;2022-09-24T15:47:49;5.67;;;3.65;;
41101;SDS011;26845;50.190;19.178;2022-09-24T15:50:18;6.28;;;3.70;;
41101;SDS011;26845;50.190;19.178;2022-09-24T15:52:53;4.50;;;2.65;;
41101;SDS011;26845;50.190;19.178;2022-09-24T15:55:24;7.60;;;3.27;;
41101;SDS011;26845;50.190;19.178;2022-09-24T15:57:53;3.98;;;2.77;;
41101;SDS011;26845;50.190;19.178;2022-09-24T16:00:21;5.60;;;3.02;;
41101;SDS011;26845;50.190;19.178;2022-09-24T16:02:50;4.22;;;2.50;;
41101;SDS011;26845;50.190;19.178;2022-09-24T16:07:47;4.33;;;2.98;;
41101;SDS011;26845;50.190;19.178;2022-09-24T16:10:14;5.00;;;2.70;;
41101;SDS011;26845;50.190;19.178;2022-09-24T16:12:42;4.03;;;2.77;;
41101;SDS011;26845;50.190;19.178;2022-09-24T16:15:13;4.25;;;2.60;;
41101;SDS011;26845;50.190;19.178;2022-09-24T16:17:41;7.87;;;5.17;;
41101;SDS011;26845;50.190;19.178;2022-09-24T16:20:08;3.12;;;2.83;;
41101;SDS011;26845;50.190;19.178;2022-09-24T16:22:35;4.55;;;2.87;;
41101;SDS011;26845;50.190;19.178;2022-09-24T16:25:02;3.77;;;2.80;;
41101;SDS011;26845;50.190;19.178;2022-09-24T16:27:29;3.50;;;2.35;;
41101;SDS011;26845;50.190;19.178;2022-09-24T16:29:56;4.33;;;3.10;;
41101;SDS011;26845;50.190;19.178;2022-09-24T16:32:23;5.25;;;3.20;;
41101;SDS011;26845;50.190;19.178;2022-09-24T16:34:49;9.20;;;3.47;;
41101;SDS011;26845;50.190;19.178;2022-09-24T16:37:16;5.50;;;3.10;;
41101;SDS011;26845;50.190;19.178;2022-09-24T16:39:43;3.52;;;2.65;;
41101;SDS011;26845;50.190;19.178;2022-09-24T16:42:11;4.37;;;2.60;;
41101;SDS011;26845;50.190;19.178;2022-09-24T16:44:37;3.92;;;2.75;;
41101;SDS011;26845;50.190;19.178;2022-09-24T16:47:04;5.15;;;3.02;;
41101;SDS011;26845;50.190;19.178;2022-09-24T16:49:31;5.97;;;2.55;;
41101;SDS011;26845;50.190;19.178;2022-09-24T16:51:58;8.18;;;3.30;;
41101;SDS011;26845;50.190;19.178;2022-09-24T16:54:28;3.10;;;2.80;;
41101;SDS011;26845;50.190;19.178;2022-09-24T16:56:56;3.60;;;3.15;;
41101;SDS011;26845;50.190;19.178;2022-09-24T16:59:23;3.17;;;2.85;;
41101;SDS011;26845;50.190;19.178;2022-09-24T17:01:50;4.47;;;3.20;;
41101;SDS011;26845;50.190;19.178;2022-09-24T17:04:18;4.22;;;3.35;;
41101;SDS011;26845;50.190;19.178;2022-09-24T17:06:45;8.88;;;2.98;;
41101;SDS011;26845;50.190;19.178;2022-09-24T17:09:12;3.87;;;3.15;;
41101;SDS011;26845;50.190;19.178;2022-09-24T17:11:57;5.60;;;3.10;;
41101;SDS011;26845;50.190;19.178;2022-09-24T17:14:24;5.28;;;3.40;;